Tiempo atmosférico en la estación meteorológica de Álora, Málaga (181 m.)



Fecha
DESCASC
Temp. máxima en grados centígrados (hora)
DESCASC
Temp. mínima en grados centígrados (hora)
DESCASC
Temp. media en grados centígrados
DESCASC
Racha de viento máxima en m/sg (hora)
DESCASC
Velocidad máxima media en intervalos de 10 minutos(hora)
DESCASC
Precipitaciones diarias en mm
DESCASC
Precipitaciones de 00:00 a 06:00 en mm
DESCASC
Precipitaciones de 06:00 a 12:00 en mm
DESCASC
Precipitaciones de 12:00 a 18:00 en mm
DESCASC
Precipitaciones de 18:00 a 24:00 en mm
DESCASC
26-11-2020 14.8 (01:30) 9.6 (21:40) 12.2 12.78 (01:30) 7.78 (01:30) 31.6 18.8 5.6 0 7.2
25-11-2020 17.1 (13:10) 11.5 (08:30) 14.3 9.17 (18:00) 6.39 (18:00) 26.6 0 0 4.6 22
24-11-2020 19.5 (15:00) 9 (08:20) 14.3 5.28 (13:20) 3.06 (19:10) 0 0 0 0 0
23-11-2020 17.5 (13:10) 9.4 (04:20) 13.4 10.28 (13:40) 6.94 (14:50) 0 0 0 0 0
22-11-2020 18.5 (13:30) 10.4 (00:00) 14.4 11.11 (02:30) 6.39 (00:20) 0 0 0 0 0
21-11-2020 18.3 (14:30) 13.4 (00:00) 15.8 12.5 (13:20) 7.78 (13:20) 0 0 0 0 0
20-11-2020 23.5 (15:10) 11.4 (00:00) 17.4 5.83 (16:20) 3.61 (16:20) 0 0 0 0 0
19-11-2020 21.4 (14:10) 13 (00:00) 17.2 8.06 (14:40) 5.83 (14:40) 0 0 0 0 0
18-11-2020 19.8 (17:10) 14.6 (00:00) 17.2 4.72 (15:00) 3.61 (03:30) 0 0 0 0 0
17-11-2020 25.3 (14:40) 12.9 (00:00) 19.1 6.11 (02:00) 4.44 (16:30) 0 0 0 0 0
16-11-2020 27.7 (15:00) 13.8 (00:00) 20.8 8.33 (12:50) 4.72 (12:50) 0 0 0 0 0
15-11-2020 25.9 (14:40) 12.9 (00:00) 19.4 4.72 (16:30) 3.61 (16:40) 0.2 0 0.2 0 0
14-11-2020 17.8 (16:00) 14.3 (00:00) 16 2.22 (23:59) 1.39 (12:30) 1 0 0.8 0.2 0
13-11-2020 21.3 (13:20) 15.1 (00:00) 18.2 5.83 (14:00) 4.44 (15:00) 0 0 0 0 0
12-11-2020 20.1 (14:00) 12.4 (00:00) 16.3 8.61 (15:10) 6.39 (15:10) 0 0 0 0 0
11-11-2020 20.1 (14:30) 13.5 (00:00) 16.8 9.72 (13:50) 7.22 (13:50) 0 0 0 0 0
10-11-2020 23 (13:50) 12.1 (00:00) 17.6 7.22 (13:40) 4.72 (14:40) 0 0 0 0 0
09-11-2020 23.1 (14:40) 10.8 (00:00) 17 5.56 (23:40) 3.61 (23:10) 0 0 0 0 0
08-11-2020 23.3 (14:40) 11.2 (00:00) 17.2 6.39 (16:30) 4.44 (16:10) 0 0 0 0 0
07-11-2020 23.3 (15:40) 14.1 (00:00) 18.7 7.22 (15:50) 5.28 (15:50) 8.2 8.2 0 0 0
06-11-2020 27.5 (14:20) 14.4 (00:00) 20.9 12.22 (12:50) 7.78 (14:50) 1.4 0 0 0 1.4
05-11-2020 20.5 (14:10) 15 (00:00) 17.8 21.11 (03:50) 13.33 (00:40) 23.4 21.8 1.6 0 0
04-11-2020 18.1 (15:10) 14.4 (00:00) 16.3 17.78 (23:10) 11.11 (23:40) 4.6 0.2 3.6 0 0.8
03-11-2020 24.1 (14:20) 11.4 (00:00) 17.8 7.5 (15:20) 5 (12:10) 0 0 0 0 0
02-11-2020 27.9 (15:00) 11.8 (00:00) 19.8 6.39 (15:10) 5 (15:20) 0 0 0 0 0
01-11-2020 28.2 (15:40) 13.1 (00:00) 20.7 6.11 (14:50) 4.17 (16:20) 0 0 0 0 0
31-10-2020 27.6 (15:30) 12.5 (00:00) 20.1 6.11 (14:30) 4.17 (12:30) 0 0 0 0 0
30-10-2020 24.7 (14:40) 11.8 (00:00) 18.3 9.72 (13:50) 6.39 (13:40) 0 0 0 0 0

Gráficas

Temp. máximas Temp. mínimas Temp. medias Precipitaciones Rachas de viento máximas Velocidades máximas media en intervalos de 10 minutos

Datos horarios

Fecha y hora oficial Temperatura (ºC) Velocidad del viento (km/h) Dirección del viento Racha (km/h) Dirección de racha Precipitación (mm) Presión (hPa) Tendencia (hPa) Humedad (%)
2020-11-28 23:00:00 -- -- -- -- -- -- -- -- --
2020-11-28 22:00:00 12.6 3 Norte 8 Norte 0 -- -- 85
2020-11-28 21:00:00 13.5 0 Calma 11 Nordeste 0 -- -- 81
2020-11-28 20:00:00 14.2 4 Nordeste 10 Nordeste 0 -- -- 77
2020-11-28 19:00:00 14.6 2 Este 8 Noroeste 0 -- -- 77
2020-11-28 18:00:00 15.5 3 Noroeste 6 Norte 0 -- -- 73
2020-11-28 17:00:00 16.1 4 Noroeste 13 Noroeste 0 -- -- 72
2020-11-28 16:00:00 16 6 Noroeste 24 Oeste 0 -- -- 69
2020-11-28 15:00:00 16.4 7 Noroeste 23 Noroeste 0 -- -- 68
2020-11-28 14:00:00 16.2 10 Noroeste 23 Noroeste 0 -- -- 67
2020-11-28 13:00:00 16.7 9 Oeste 22 Noroeste 0 -- -- 69
2020-11-28 12:00:00 15.4 6 Noroeste 17 Noroeste 0 -- -- 72
2020-11-28 11:00:00 13.9 7 Noroeste 16 Noroeste 0 -- -- 79
2020-11-28 10:00:00 12.5 4 Noroeste 14 Oeste 0 -- -- 84
2020-11-28 09:00:00 11.5 5 Noroeste 14 Oeste 0 -- -- 86
2020-11-28 08:00:00 11.2 6 Noroeste 13 Norte 0 -- -- 84
2020-11-28 07:00:00 11 8 Norte 14 Oeste 0 -- -- 82
2020-11-28 06:00:00 11.2 3 Norte 13 Norte 0 -- -- 79
2020-11-28 05:00:00 11.2 3 Noroeste 10 Norte 0 -- -- 79
2020-11-28 04:00:00 11.4 4 Nordeste 9 Nordeste 0 -- -- 81
2020-11-28 03:00:00 11.2 3 Nordeste 7 Norte 0 -- -- 84
2020-11-28 02:00:00 11.3 3 Norte 10 Nordeste 0 -- -- 82
2020-11-28 01:00:00 11.1 4 Norte 14 Norte 0 -- -- 83
2020-11-28 00:00:00 10.7 2 Norte 5 Norte 0 -- -- 83
2020-11-27 23:00:00 10.9 3 Norte 7 Norte 0 -- -- 83
2020-11-27 22:00:00 11.1 2 Noroeste 8 Norte 0 -- -- 82
2020-11-27 21:00:00 11.6 2 Norte 5 Norte 0 -- -- 78
2020-11-27 20:00:00 11.7 2 Noroeste 13 Noroeste 0 -- -- 78
2020-11-27 19:00:00 12 5 Norte 15 Noroeste 0 -- -- 77
2020-11-27 18:00:00 12.6 7 Norte 14 Noroeste 0 -- -- 76
2020-11-27 17:00:00 13.2 4 Norte 11 Norte 0 -- -- 75
2020-11-27 16:00:00 13.5 3 Norte 15 Norte 0 -- -- 72
2020-11-27 15:00:00 14.2 6 Noroeste 18 Noroeste 0 -- -- 68
2020-11-27 14:00:00 14.9 7 Noroeste 17 Oeste 0 -- -- 67
2020-11-27 13:00:00 14.1 6 Noroeste 15 Noroeste 0 -- -- 72
2020-11-27 12:00:00 12.8 4 Norte 10 Norte 0 -- -- 78
2020-11-27 11:00:00 11.3 2 Norte 10 Norte 0 -- -- 86
2020-11-27 10:00:00 10.4 5 Noroeste 13 Noroeste 0 -- -- 92
2020-11-27 09:00:00 9.2 6 Noroeste 12 Noroeste 0 -- -- 92
2020-11-27 08:00:00 9.1 8 Noroeste 15 Oeste 0 -- -- 93
2020-11-27 07:00:00 9.3 7 Noroeste 14 Oeste 0 -- -- 94
2020-11-27 06:00:00 9.5 8 Noroeste 17 Oeste 0 -- -- 95
2020-11-27 05:00:00 9.6 7 Noroeste 19 Noroeste 0.2 -- -- 95
2020-11-27 04:00:00 9.6 9 Noroeste 20 Oeste 0 -- -- 96
2020-11-27 03:00:00 9.6 2 Este 8 Norte 0 -- -- 95
2020-11-27 02:00:00 9.6 4 Norte 12 Norte 0 -- -- 95
2020-11-27 01:00:00 9.7 8 Norte 12 Norte 0.4 -- -- 95
2020-11-27 00:00:00 9.8 3 Norte 10 Este 0.2 -- -- 95
2020-11-26 23:00:00 9.6 4 Norte 10 Noroeste 0.2 -- -- 94
2020-11-26 22:00:00 9.6 4 Noroeste 14 Nordeste 1 -- -- 93
2020-11-26 21:00:00 9.9 4 Nordeste 10 Nordeste 4.6 -- -- 91
2020-11-26 20:00:00 10.7 8 Sudoeste 24 Sudoeste 0.4 -- -- 82
2020-11-26 19:00:00 11.9 4 Noroeste 5 Oeste 0.8 -- -- 85
2020-11-26 18:00:00 12.5 0 Calma 12 Sudeste 0 -- -- 81
2020-11-26 17:00:00 13.3 8 Sudeste 20 Este 0 -- -- 75
2020-11-26 16:00:00 12.7 13 Este 21 Este 0 -- -- 80
2020-11-26 15:00:00 12.6 9 Este 15 Este 0 -- -- 83
2020-11-26 14:00:00 12 6 Este 10 Sudeste 0 -- -- 94
2020-11-26 13:00:00 11.9 7 Sudeste 12 Sur 0 -- -- 96
2020-11-26 12:00:00 11.7 5 Sur 20 Sudeste 0 -- -- 96
2020-11-26 11:00:00 11.6 5 Sur 15 Este 0.2 -- -- 96
2020-11-26 10:00:00 11.3 9 Nordeste 13 Nordeste 1.2 -- -- 95
2020-11-26 09:00:00 11.6 0 Calma 6 Norte 1.6 -- -- 95
2020-11-26 08:00:00 11.6 4 Noroeste 13 Oeste 1.4 -- -- 94
2020-11-26 07:00:00 11.7 4 Nordeste 18 Oeste 1.2 -- -- 94
2020-11-26 06:00:00 11.9 4 Nordeste 23 Este 1.4 -- -- 94
2020-11-26 05:00:00 12.1 0 Calma 22 Sur 4.2 -- -- 93
2020-11-26 04:00:00 12.8 12 Sudeste 26 Sudeste 9.4 -- -- 94
2020-11-26 03:00:00 14 8 Sur 31 Este 2.8 -- -- 93
2020-11-26 02:00:00 14.3 25 Sudeste 46 Sudeste 1 -- -- 89
2020-11-26 01:00:00 14.4 27 Sudeste 41 Sudeste 0 -- -- 92
2020-11-26 00:00:00 13.2 12 Sur 27 Este 7.8 -- -- 96
2020-11-25 23:00:00 11.8 7 Sudoeste 15 Sur 2 -- -- 95
2020-11-25 22:00:00 11.7 8 Sur 14 Sudeste 1.2 -- -- 95
2020-11-25 21:00:00 11.5 3 Oeste 6 Oeste 0 -- -- 95
2020-11-25 20:00:00 11.5 4 Noroeste 11 Oeste 0 -- -- 94
2020-11-25 19:00:00 11.6 9 Nordeste 23 Oeste 11 -- -- 92
2020-11-25 18:00:00 13.7 23 Sudoeste 33 Oeste 2.8 -- -- 84
2020-11-25 17:00:00 14.8 15 Sudeste 28 Sudeste 0.6 -- -- 89
2020-11-25 16:00:00 15.9 13 Sudeste 20 Sudeste 0.2 -- -- 85
2020-11-25 15:00:00 15.5 8 Sur 27 Sur 1 -- -- 91
2020-11-25 14:00:00 16.9 14 Sudeste 24 Sudeste 0 -- -- 78
2020-11-25 13:00:00 16.7 10 Sudeste 21 Sudeste 0 -- -- 79
2020-11-25 12:00:00 16.1 8 Sudeste 13 Sudeste 0 -- -- 82
2020-11-25 11:00:00 13.6 3 Nordeste 10 Oeste 0 -- -- 90
2020-11-25 10:00:00 12.5 4 Este 5 Este 0 -- -- 92
2020-11-25 09:00:00 11.6 0 Calma 8 Oeste 0 -- -- 92
2020-11-25 08:00:00 11.9 4 Nordeste 9 Oeste 0 -- -- 91
2020-11-25 07:00:00 11.9 5 Noroeste 9 Oeste 0 -- -- 89
2020-11-25 06:00:00 12.2 0 Calma 6 Sur 0 -- -- 88
2020-11-25 05:00:00 12.3 0 Calma 3 Oeste 0 -- -- 87
2020-11-25 04:00:00 12 0 Calma 4 Noroeste 0 -- -- 89
2020-11-25 03:00:00 12 0 Calma 8 Oeste 0 -- -- 88
2020-11-25 02:00:00 11.9 0 Calma 8 Norte 0 -- -- 87
2020-11-25 01:00:00 12 3 Oeste 6 Oeste 0 -- -- 87
2020-11-25 00:00:00 11.7 2 Norte 9 Nordeste 0 -- -- 86
2020-11-24 23:00:00 11.8 0 Calma 11 Este 0 -- -- 84
2020-11-24 22:00:00 12 2 Norte 9 Este 0 -- -- 82
2020-11-24 21:00:00 12.9 3 Este 12 Este 0 -- -- 79
2020-11-24 20:00:00 14.1 6 Este 16 Sudoeste 0 -- -- 77
2020-11-24 19:00:00 15 9 Sudoeste 16 Sudoeste 0 -- -- 74
2020-11-24 18:00:00 16.4 9 Sur 13 Sur 0 -- -- 68
2020-11-24 17:00:00 19.1 9 Sur 14 Sudeste 0 -- -- 59
2020-11-24 16:00:00 19.3 9 Sur 18 Este 0 -- -- 58
2020-11-24 15:00:00 19.5 9 Sur 17 Sur 0 -- -- 58
2020-11-24 14:00:00 18.8 11 Sur 19 Sur 0 -- -- 59
2020-11-24 13:00:00 18.3 10 Sur 16 Sur 0 -- -- 63
2020-11-24 12:00:00 16 7 Sur 12 Sur 0 -- -- 72
2020-11-24 11:00:00 14.1 2 Este 7 Este 0 -- -- 81
2020-11-24 10:00:00 11.2 0 Calma 8 Oeste 0 -- -- 93
2020-11-24 09:00:00 9.2 0 Calma 4 Norte 0 -- -- 92
2020-11-24 08:00:00 9.2 0 Calma 4 Sur 0 -- -- 91
2020-11-24 07:00:00 9.6 0 Calma 4 Este 0 -- -- 90
2020-11-24 06:00:00 9.6 0 Calma 4 Sur 0 -- -- 90
2020-11-24 05:00:00 9.8 3 Sudeste 6 Sudeste 0 -- -- 89
2020-11-24 04:00:00 10 4 Este 5 Este 0 -- -- 88
2020-11-24 03:00:00 10.3 0 Calma 6 Este 0 -- -- 87
2020-11-24 02:00:00 10.3 3 Este 4 Este 0 -- -- 88
2020-11-24 01:00:00 10.4 3 Este 7 Este 0 -- -- 85
2020-11-24 00:00:00 10.9 0 Calma 5 Este 0 -- -- 84
2020-11-23 23:00:00 11.1 0 Calma 9 Nordeste 0 -- -- 83
2020-11-23 22:00:00 11.8 7 Nordeste 12 Nordeste 0 -- -- 80
2020-11-23 21:00:00 12.4 3 Este 8 Este 0 -- -- 80
2020-11-23 20:00:00 13 5 Este 11 Sudeste 0 -- -- 78
2020-11-23 19:00:00 13.5 8 Sudeste 13 Sudeste 0 -- -- 75
2020-11-23 18:00:00 14.5 9 Sudeste 25 Sudeste 0 -- -- 69
2020-11-23 17:00:00 16.2 18 Sudeste 28 Sudeste 0 -- -- 62
2020-11-23 16:00:00 17.1 20 Sudeste 34 Sudeste 0 -- -- 58
2020-11-23 15:00:00 17.1 20 Sudeste 36 Sudeste 0 -- -- 56
2020-11-23 14:00:00 16.5 20 Sudeste 37 Sur 0 -- -- 58
2020-11-23 13:00:00 17.4 17 Sudeste 35 Sur 0 -- -- 59
2020-11-23 12:00:00 17 21 Sur 32 Sur 0 -- -- 63
2020-11-23 11:00:00 15.6 17 Sur 22 Sur 0 -- -- 68
2020-11-23 10:00:00 12.9 7 Sudeste 10 Sudeste 0 -- -- 82
2020-11-23 09:00:00 12 5 Este 12 Este 0 -- -- 78
2020-11-23 08:00:00 11.6 5 Este 9 Nordeste 0 -- -- 79
2020-11-23 07:00:00 11.3 5 Este 8 Este 0 -- -- 82
2020-11-23 06:00:00 10.3 5 Este 8 Nordeste 0 -- -- 87
2020-11-23 05:00:00 9.7 3 Este 6 Sur 0 -- -- 87
2020-11-23 04:00:00 9.8 3 Nordeste 5 Este 0 -- -- 85
2020-11-23 03:00:00 9.9 2 Este 3 Sudeste 0 -- -- 83
2020-11-23 02:00:00 10.5 0 Calma 3 Sudoeste 0 -- -- 80
2020-11-23 01:00:00 10.4 0 Calma 4 Oeste 0 -- -- 80
2020-11-23 00:00:00 10.4 3 Oeste 4 Noroeste 0 -- -- 79
2020-11-22 23:00:00 10.5 0 Calma 3 Norte 0 -- -- 78
2020-11-22 22:00:00 11.2 0 Calma 6 Nordeste 0 -- -- 75
2020-11-22 21:00:00 12.5 8 Nordeste 10 Este 0 -- -- 69
2020-11-22 20:00:00 13.3 5 Este 10 Sudeste 0 -- -- 70
2020-11-22 19:00:00 13.8 3 Sudeste 17 Sudeste 0 -- -- 68
2020-11-22 18:00:00 15 10 Sudeste 23 Sudeste 0 -- -- 62
2020-11-22 17:00:00 16.8 15 Sudeste 30 Sur 0 -- -- 58
2020-11-22 16:00:00 17.8 15 Sudeste 31 Sudeste 0 -- -- 55
2020-11-22 15:00:00 17.5 17 Sudeste 28 Sudeste 0 -- -- 55
2020-11-22 14:00:00 17.2 14 Sudeste 32 Sur 0 -- -- 59
2020-11-22 13:00:00 17.7 21 Sur 32 Sudeste 0 -- -- 55
2020-11-22 12:00:00 16.1 21 Sudeste 31 Sur 0 -- -- 62
2020-11-22 11:00:00 15.4 13 Sudeste 22 Este 0 -- -- 63
2020-11-22 10:00:00 14.9 13 Este 26 Este 0 -- -- 63
2020-11-22 09:00:00 14.8 12 Este 24 Este 0 -- -- 68
2020-11-22 08:00:00 13.9 11 Sudeste 20 Sudeste 0 -- -- 76
2020-11-22 07:00:00 13.5 4 Sudeste 13 Sudeste 0 -- -- 80
2020-11-22 06:00:00 13.7 9 Sudeste 17 Sudeste 0 -- -- 78
2020-11-22 05:00:00 14.1 8 Este 19 Sudeste 0 -- -- 74
2020-11-22 04:00:00 14.4 10 Sudeste 27 Sudeste 0 -- -- 72
2020-11-22 03:00:00 14.9 15 Sudeste 40 Sudeste 0 -- -- 72
2020-11-22 02:00:00 15.2 16 Sudeste 33 Sudeste 0 -- -- 72
2020-11-22 01:00:00 15.4 18 Sudeste 33 Sur 0 -- -- 74
2020-11-22 00:00:00 15.5 15 Sudeste 27 Sudeste 0 -- -- 75
2020-11-21 23:00:00 15.4 18 Sudeste 29 Sudeste 0 -- -- 77
2020-11-21 22:00:00 15.1 13 Sudeste 23 Sur 0 -- -- 83
2020-11-21 21:00:00 15.2 9 Sudeste 31 Sudeste 0 -- -- 82
2020-11-21 20:00:00 15.6 16 Sudeste 25 Este 0 -- -- 78
2020-11-21 19:00:00 15.3 12 Sudeste 26 Este 0 -- -- 81
2020-11-21 18:00:00 16.1 16 Sudeste 32 Sudeste 0 -- -- 76
2020-11-21 17:00:00 17.2 18 Sudeste 36 Sudeste 0 -- -- 71
2020-11-21 16:00:00 17.6 25 Sudeste 39 Sudeste 0 -- -- 65
2020-11-21 15:00:00 18 21 Sudeste 42 Sudeste 0 -- -- 67
2020-11-21 14:00:00 17.3 21 Sudeste 45 Sudeste 0 -- -- 67
2020-11-21 13:00:00 17.4 26 Sudeste 40 Sudeste 0 -- -- 70
2020-11-21 12:00:00 16.8 22 Sudeste 38 Este 0 -- -- 73
2020-11-21 11:00:00 16.7 27 Sudeste 40 Este 0 -- -- 75
2020-11-21 10:00:00 16.9 12 Sur 28 Sudeste 0 -- -- 81
2020-11-21 09:00:00 15.4 14 Sudeste 28 Sudeste 0 -- -- 89
2020-11-21 08:00:00 14.2 6 Sudeste 12 Sudeste 0 -- -- 95
2020-11-21 07:00:00 13.9 5 Sudeste 9 Sudeste 0 -- -- 94
2020-11-21 06:00:00 13.7 4 Sudeste 9 Sur 0 -- -- 94
2020-11-21 05:00:00 13.7 4 Sudeste 8 Este 0 -- -- 93
2020-11-21 04:00:00 13.5 2 Este 8 Este 0 -- -- 93
2020-11-21 03:00:00 13.8 6 Este 10 Este 0 -- -- 92
2020-11-21 02:00:00 14.5 5 Este 8 Este 0 -- -- 92
2020-11-21 01:00:00 13.9 4 Sudeste 8 Sudeste 0 -- -- 91
2020-11-21 00:00:00 14 4 Este 6 Este 0 -- -- 88
2020-11-20 23:00:00 14 0 Calma 6 Este 0 -- -- 87
2020-11-20 22:00:00 14.6 5 Este 9 Sudeste 0 -- -- 85
2020-11-20 21:00:00 15.4 5 Sudeste 7 Sudeste 0 -- -- 82
2020-11-20 20:00:00 16 0 Calma 9 Sur 0 -- -- 79
2020-11-20 19:00:00 17.2 6 Sur 9 Sur 0 -- -- 72
2020-11-20 18:00:00 18.7 5 Sudeste 15 Sudeste 0 -- -- 67
2020-11-20 17:00:00 20.9 11 Sudeste 21 Sur 0 -- -- 60
2020-11-20 16:00:00 23.3 12 Sur 18 Sur 0 -- -- 53
2020-11-20 15:00:00 23.2 9 Sur 19 Sur 0 -- -- 53
2020-11-20 14:00:00 22.8 11 Sur 19 Sur 0 -- -- 55
2020-11-20 13:00:00 22 8 Sudoeste 17 Sur 0 -- -- 58
2020-11-20 12:00:00 21.1 6 Sur 12 Sudeste 0 -- -- 61
2020-11-20 11:00:00 17.9 2 Sudeste 7 Sur 0 -- -- 77
2020-11-20 10:00:00 14.4 2 Sudeste 6 Norte 0 -- -- 91
2020-11-20 09:00:00 12.3 3 Nordeste 5 Sudoeste 0 -- -- 93
2020-11-20 08:00:00 11.4 0 Calma 6 Norte 0 -- -- 91
2020-11-20 07:00:00 11.9 0 Calma 6 Nordeste 0 -- -- 90
2020-11-20 06:00:00 11.9 3 Norte 10 Noroeste 0 -- -- 91
2020-11-20 05:00:00 12.6 2 Norte 9 Norte 0 -- -- 91
2020-11-20 04:00:00 12.6 3 Nordeste 8 Este 0 -- -- 88
2020-11-20 03:00:00 13.3 6 Este 12 Este 0 -- -- 86
2020-11-20 02:00:00 14.2 5 Este 12 Este 0 -- -- 86
2020-11-20 01:00:00 15.1 6 Este 10 Este 0 -- -- 84
2020-11-20 00:00:00 15.8 3 Norte 5 Nordeste 0 -- -- 84
2020-11-19 23:00:00 16.3 0 Calma 3 Nordeste 0 -- -- 82
2020-11-19 22:00:00 16.4 0 Calma 6 Sudeste 0 -- -- 82
2020-11-19 21:00:00 16.5 3 Sur 11 Sur 0 -- -- 79
2020-11-19 20:00:00 16.7 4 Sudeste 9 Sur 0 -- -- 76
2020-11-19 19:00:00 17.2 5 Sur 10 Sur 0 -- -- 75
2020-11-19 18:00:00 17.8 8 Sudeste 21 Sudeste 0 -- -- 73
2020-11-19 17:00:00 19.2 16 Sudeste 25 Sudeste 0 -- -- 68
2020-11-19 16:00:00 20.6 17 Sudeste 25 Sudeste 0 -- -- 64
2020-11-19 15:00:00 21 20 Sur 29 Sur 0 -- -- 62
2020-11-19 14:00:00 21.1 13 Sur 22 Sudeste 0 -- -- 64
2020-11-19 13:00:00 19.3 4 Sudeste 12 Sur 0 -- -- 73
2020-11-19 12:00:00 17.9 8 Sudeste 11 Sur 0 -- -- 78
2020-11-19 11:00:00 16.2 3 Sudeste 7 Sur 0 -- -- 91
2020-11-19 10:00:00 14.8 0 Calma 5 Noroeste 0 -- -- 93
2020-11-19 09:00:00 14 0 Calma 3 Noroeste 0 -- -- 93
2020-11-19 08:00:00 13.6 0 Calma 4 Oeste 0 -- -- 94
2020-11-19 07:00:00 13.4 0 Calma 4 Noroeste 0 -- -- 94
2020-11-19 06:00:00 13 2 Norte 6 Noroeste 0 -- -- 93
2020-11-19 05:00:00 13.4 0 Calma 5 Nordeste 0 -- -- 93
2020-11-19 04:00:00 13.5 0 Calma 5 Noroeste 0 -- -- 93
2020-11-19 03:00:00 13.6 0 Calma 6 Nordeste 0 -- -- 93
2020-11-19 02:00:00 13.6 0 Calma 6 Este 0 -- -- 92
2020-11-19 01:00:00 14 0 Calma 8 Nordeste 0 -- -- 92
2020-11-19 00:00:00 14.6 0 Calma 8 Este 0 -- -- 91
2020-11-18 23:00:00 15.3 0 Calma 6 Nordeste 0 -- -- 89
2020-11-18 22:00:00 15.4 2 Sudeste 5 Este 0 -- -- 89
2020-11-18 21:00:00 15.7 2 Sur 5 Sudeste 0 -- -- 88
2020-11-18 20:00:00 16.5 2 Oeste 6 Sudoeste 0 -- -- 85
2020-11-18 19:00:00 17.2 5 Este 10 Sudeste 0 -- -- 83
2020-11-18 18:00:00 18.4 5 Sudeste 10 Sur 0 -- -- 76
2020-11-18 17:00:00 19.7 10 Sur 15 Sur 0 -- -- 73
2020-11-18 16:00:00 19.2 8 Sur 13 Sur 0 -- -- 75
2020-11-18 15:00:00 19 13 Sudeste 17 Sudeste 0 -- -- 76
2020-11-18 14:00:00 19 5 Sur 15 Sur 0 -- -- 75
2020-11-18 13:00:00 18.6 11 Sur 15 Sur 0 -- -- 77
2020-11-18 12:00:00 17.6 5 Sudeste 8 Sudeste 0 -- -- 83
2020-11-18 11:00:00 16.6 2 Este 5 Este 0 -- -- 88
2020-11-18 10:00:00 15.6 0 Calma 4 Sur 0 -- -- 90
2020-11-18 09:00:00 15.1 0 Calma 3 Oeste 0 -- -- 90
2020-11-18 08:00:00 14.9 0 Calma 13 Nordeste 0 -- -- 90
2020-11-18 07:00:00 15.1 6 Nordeste 8 Nordeste 0 -- -- 89
2020-11-18 06:00:00 15.4 3 Nordeste 8 Este 0 -- -- 89
2020-11-18 05:00:00 15.5 0 Calma 9 Nordeste 0 -- -- 90
2020-11-18 04:00:00 15.5 8 Nordeste 16 Nordeste 0 -- -- 91
2020-11-18 03:00:00 16.2 3 Este 9 Nordeste 0 -- -- 91
2020-11-18 02:00:00 16.2 3 Oeste 7 Sudoeste 0 -- -- 92
2020-11-18 01:00:00 16.4 4 Sudoeste 7 Oeste 0 -- -- 91
2020-11-18 00:00:00 16.5 5 Oeste 7 Oeste 0 -- -- 91
2020-11-17 23:00:00 16.3 0 Calma 3 Noroeste 0 -- -- 91
2020-11-17 22:00:00 16.2 0 Calma 4 Este 0 -- -- 91
2020-11-17 21:00:00 16.5 0 Calma 10 Este 0 -- -- 90
2020-11-17 20:00:00 17 5 Sudeste 11 Sudeste 0 -- -- 88
2020-11-17 19:00:00 17.7 6 Sudeste 18 Sur 0 -- -- 85
2020-11-17 18:00:00 19.7 14 Sur 19 Sur 0 -- -- 77
2020-11-17 17:00:00 22.7 15 Sur 21 Sur 0 -- -- 67
2020-11-17 16:00:00 24.3 15 Sur 21 Sur 0 -- -- 60
2020-11-17 15:00:00 25.3 13 Sur 21 Sudoeste 0 -- -- 55
2020-11-17 14:00:00 25 14 Sur 22 Sur 0 -- -- 55
2020-11-17 13:00:00 24.8 14 Sur 21 Sur 0 -- -- 54
2020-11-17 12:00:00 23 4 Sudeste 8 Sudeste 0 -- -- 60
2020-11-17 11:00:00 20.1 3 Sudeste 6 Sudeste 0 -- -- 69
2020-11-17 10:00:00 16 0 Calma 4 Norte 0 -- -- 82
2020-11-17 09:00:00 13.3 0 Calma 8 Norte 0 -- -- 87
2020-11-17 08:00:00 13 0 Calma 9 Norte 0 -- -- 86
2020-11-17 07:00:00 13.5 0 Calma 9 Noroeste 0 -- -- 86
2020-11-17 06:00:00 13.5 6 Norte 10 Noroeste 0 -- -- 86
2020-11-17 05:00:00 14.2 3 Noroeste 9 Noroeste 0 -- -- 85
2020-11-17 04:00:00 14.9 0 Calma 8 Nordeste 0 -- -- 83
2020-11-17 03:00:00 16 3 Noroeste 17 Norte 0 -- -- 84
2020-11-17 02:00:00 16.7 13 Norte 22 Norte 0 -- -- 82
2020-11-17 01:00:00 17.1 10 Norte 18 Noroeste 0 -- -- 82
2020-11-17 00:00:00 17.6 12 Norte 18 Norte 0 -- -- 81
2020-11-16 23:00:00 18.5 8 Noroeste 16 Noroeste 0 -- -- 80
2020-11-16 22:00:00 18.8 8 Noroeste 23 Oeste 0 -- -- 79
2020-11-16 21:00:00 20 10 Noroeste 21 Noroeste 0 -- -- 75
2020-11-16 20:00:00 20.3 5 Noroeste 15 Norte 0 -- -- 70
2020-11-16 19:00:00 21.7 9 Noroeste 25 Noroeste 0 -- -- 66
2020-11-16 18:00:00 23.6 16 Noroeste 27 Norte 0 -- -- 59
2020-11-16 17:00:00 26.8 12 Noroeste 23 Norte 0 -- -- 49
2020-11-16 16:00:00 27.3 10 Noroeste 21 Noroeste 0 -- -- 47
2020-11-16 15:00:00 27.7 9 Noroeste 22 Oeste 0 -- -- 47
2020-11-16 14:00:00 26.9 6 Noroeste 26 Noroeste 0 -- -- 49
2020-11-16 13:00:00 25.4 14 Noroeste 30 Noroeste 0 -- -- 51
2020-11-16 12:00:00 24.1 9 Noroeste 22 Noroeste 0 -- -- 53
2020-11-16 11:00:00 20.8 9 Norte 23 Noroeste 0 -- -- 68
2020-11-16 10:00:00 18 11 Noroeste 22 Noroeste 0 -- -- 78
2020-11-16 09:00:00 15.8 14 Noroeste 22 Noroeste 0 -- -- 83
2020-11-16 08:00:00 14.4 5 Noroeste 16 Norte 0 -- -- 89
2020-11-16 07:00:00 13.9 0 Calma 4 Oeste 0 -- -- 93
2020-11-16 06:00:00 13.8 2 Sudoeste 6 Sudoeste 0 -- -- 93
2020-11-16 05:00:00 14.2 3 Noroeste 5 Noroeste 0 -- -- 95
2020-11-16 04:00:00 14.4 2 Noroeste 4 Noroeste 0 -- -- 95
2020-11-16 03:00:00 14.7 0 Calma 2 Sudoeste 0 -- -- 94
2020-11-16 02:00:00 15.1 2 Sudoeste 2 Sur 0 -- -- 93
2020-11-16 01:00:00 15.6 0 Calma 3 Nordeste 0 -- -- 93
2020-11-16 00:00:00 15.9 0 Calma 4 Oeste 0 -- -- 92
2020-11-15 23:00:00 16.4 3 Oeste 4 Nordeste 0 -- -- 91
2020-11-15 22:00:00 16.9 2 Este 4 Sudeste 0 -- -- 89
2020-11-15 21:00:00 17.6 4 Este 8 Este 0 -- -- 88
2020-11-15 20:00:00 18.9 4 Sudeste 8 Este 0 -- -- 82
2020-11-15 19:00:00 20.6 5 Este 10 Sudeste 0 -- -- 75
2020-11-15 18:00:00 22.2 8 Sur 15 Sur 0 -- -- 68
2020-11-15 17:00:00 24.6 11 Sur 17 Sur 0 -- -- 60
2020-11-15 16:00:00 25.8 9 Sur 15 Sur 0 -- -- 56
2020-11-15 15:00:00 25.6 8 Sur 16 Sudeste 0 -- -- 52
2020-11-15 14:00:00 24.9 8 Sur 15 Sur 0 -- -- 54
2020-11-15 13:00:00 24.1 9 Sur 15 Sur 0 -- -- 61
2020-11-15 12:00:00 20.9 3 Sudoeste 8 Sur 0 -- -- 72
2020-11-15 11:00:00 17.8 3 Sudoeste 6 Sudoeste 0 -- -- 86
2020-11-15 10:00:00 15 0 Calma 4 Norte 0 -- -- 94
2020-11-15 09:00:00 13.7 0 Calma 7 Noroeste 0 -- -- 95
2020-11-15 08:00:00 12.9 5 Noroeste 9 Oeste 0.2 -- -- 95
2020-11-15 07:00:00 13.1 3 Noroeste 6 Norte 0 -- -- 95
2020-11-15 06:00:00 13.1 2 Nordeste 4 Nordeste 0 -- -- 95
2020-11-15 05:00:00 13.5 4 Noroeste 9 Noroeste 0 -- -- 95
2020-11-15 04:00:00 13.5 0 Calma 4 Noroeste 0 -- -- 95
2020-11-15 03:00:00 13.7 3 Nordeste 7 Nordeste 0 -- -- 95
2020-11-15 02:00:00 13.8 0 Calma 6 Este 0 -- -- 95
2020-11-15 01:00:00 14.1 0 Calma 6 Noroeste 0 -- -- 95
2020-11-15 00:00:00 14.3 5 Norte 8 Nordeste 0 -- -- 94
2020-11-14 23:00:00 15 2 Oeste 5 Oeste 0 -- -- 94
2020-11-14 22:00:00 15.2 0 Calma 6 Norte 0 -- -- 92
2020-11-14 21:00:00 16.2 3 Norte 6 Nordeste 0 -- -- 92
2020-11-14 20:00:00 16.9 4 Nordeste 6 Nordeste 0 -- -- 91
2020-11-14 19:00:00 17.2 0 Calma 4 Sur 0 -- -- 90
2020-11-14 18:00:00 17.5 0 Calma 6 Sudoeste 0 -- -- 88
2020-11-14 17:00:00 17.7 2 Noroeste 6 Oeste 0 -- -- 88
2020-11-14 16:00:00 17.8 3 Oeste 7 Oeste 0 -- -- 88
2020-11-14 15:00:00 17 3 Noroeste 5 Oeste 0 -- -- 91
2020-11-14 14:00:00 16.6 0 Calma 4 Norte 0.2 -- -- 93
2020-11-14 13:00:00 16.3 0 Calma 8 Oeste 0 -- -- 94
2020-11-14 12:00:00 16.4 0 Calma 5 Oeste 0 -- -- 95
2020-11-14 11:00:00 16.2 0 Calma 4 Este 0.8 -- -- 94
2020-11-14 10:00:00 15.7 3 Sudeste 4 Este 0 -- -- 94
2020-11-14 09:00:00 15.5 0 Calma 6 Oeste 0 -- -- 94
2020-11-14 08:00:00 15.3 0 Calma 3 Sudeste 0 -- -- 93
2020-11-14 07:00:00 15.3 0 Calma 3 Nordeste 0 -- -- 93
2020-11-14 06:00:00 15.5 0 Calma 4 Este 0 -- -- 92
2020-11-14 05:00:00 15.5 3 Nordeste 8 Norte 0 -- -- 91
2020-11-14 04:00:00 15.5 3 Norte 8 Este 0 -- -- 91
2020-11-14 03:00:00 15.8 3 Este 5 Norte 0 -- -- 91
2020-11-14 02:00:00 15.8 2 Sudeste 6 Sudeste 0 -- -- 91
2020-11-14 01:00:00 16 3 Sudeste 5 Sudeste 0 -- -- 89
2020-11-14 00:00:00 16.2 0 Calma 2 Noroeste 0 -- -- 88
2020-11-13 23:00:00 16.3 2 Nordeste 5 Sudeste 0 -- -- 87
2020-11-13 22:00:00 16.5 4 Sudeste 8 Sudeste 0 -- -- 85
2020-11-13 21:00:00 17 5 Sudeste 8 Sudeste 0 -- -- 80
2020-11-13 20:00:00 17.4 0 Calma 7 Sudoeste 0 -- -- 77
2020-11-13 19:00:00 17.8 6 Sudoeste 10 Sur 0 -- -- 75
2020-11-13 18:00:00 18.3 6 Sur 14 Sur 0 -- -- 73
2020-11-13 17:00:00 19.1 9 Sur 17 Sur 0 -- -- 71
2020-11-13 16:00:00 19.6 13 Sur 17 Sur 0 -- -- 72
2020-11-13 15:00:00 21 16 Sur 20 Sur 0 -- -- 66
2020-11-13 14:00:00 20.9 14 Sudeste 21 Sudeste 0 -- -- 64
2020-11-13 13:00:00 20.6 9 Sudeste 16 Sudeste 0 -- -- 66
2020-11-13 12:00:00 20.4 9 Sur 15 Sur 0 -- -- 71
2020-11-13 11:00:00 18.7 3 Sur 8 Sudeste 0 -- -- 78
2020-11-13 10:00:00 16 0 Calma 4 Nordeste 0 -- -- 92
2020-11-13 09:00:00 15.1 0 Calma 6 Nordeste 0 -- -- 92
2020-11-13 08:00:00 15.2 0 Calma 5 Nordeste 0 -- -- 92
2020-11-13 07:00:00 15.6 0 Calma 6 Este 0 -- -- 91
2020-11-13 06:00:00 15.8 3 Sudeste 5 Sudeste 0 -- -- 90
2020-11-13 05:00:00 15.9 0 Calma 5 Sudeste 0 -- -- 90
2020-11-13 04:00:00 15.8 3 Sudeste 6 Sudeste 0 -- -- 90
2020-11-13 03:00:00 15.7 4 Sudeste 12 Sur 0 -- -- 91
2020-11-13 02:00:00 15.6 7 Sudeste 11 Sur 0 -- -- 91
2020-11-13 01:00:00 15.7 7 Sudeste 9 Sudeste 0 -- -- 90
2020-11-13 00:00:00 15.7 6 Sudeste 11 Sudeste 0 -- -- 87
2020-11-12 23:00:00 16.2 8 Sudeste 10 Sudeste 0 -- -- 85
2020-11-12 22:00:00 16.2 8 Sudeste 12 Sudeste 0 -- -- 84
2020-11-12 21:00:00 15.7 8 Sudeste 12 Sudeste 0 -- -- 84
2020-11-12 20:00:00 15.9 6 Sudeste 9 Sudeste 0 -- -- 83
2020-11-12 19:00:00 16.5 5 Sur 18 Sudeste 0 -- -- 79
2020-11-12 18:00:00 17.1 9 Sudeste 26 Sudeste 0 -- -- 75
2020-11-12 17:00:00 17.8 18 Sudeste 26 Sudeste 0 -- -- 70
2020-11-12 16:00:00 18.7 19 Sudeste 31 Sudeste 0 -- -- 66
2020-11-12 15:00:00 18.9 22 Sudeste 31 Sudeste 0 -- -- 64
2020-11-12 14:00:00 20.1 19 Sudeste 30 Sur 0 -- -- 57
2020-11-12 13:00:00 18.2 17 Sudeste 28 Sur 0 -- -- 65
2020-11-12 12:00:00 18.4 17 Sur 24 Sur 0 -- -- 73
2020-11-12 11:00:00 16.7 7 Sudeste 13 Sur 0 -- -- 87
2020-11-12 10:00:00 14 0 Calma 2 Oeste 0 -- -- 95
2020-11-12 09:00:00 12.7 0 Calma 4 Nordeste 0 -- -- 94
2020-11-12 08:00:00 12.4 2 Norte 3 Nordeste 0 -- -- 93
2020-11-12 07:00:00 12.7 0 Calma 8 Nordeste 0 -- -- 92
2020-11-12 06:00:00 12.9 4 Nordeste 8 Norte 0 -- -- 92
2020-11-12 05:00:00 13.5 2 Nordeste 5 Este 0 -- -- 90
2020-11-12 04:00:00 14.2 4 Este 9 Sudeste 0 -- -- 88
2020-11-12 03:00:00 14.3 6 Sudeste 10 Sudeste 0 -- -- 91
2020-11-12 02:00:00 14.5 7 Este 11 Este 0 -- -- 91
2020-11-12 01:00:00 14.6 6 Sudeste 10 Sudeste 0 -- -- 91
2020-11-12 00:00:00 14.6 7 Este 10 Este 0 -- -- 90
2020-11-11 23:00:00 14.7 4 Nordeste 9 Nordeste 0 -- -- 89
2020-11-11 22:00:00 15 4 Nordeste 8 Nordeste 0 -- -- 88
2020-11-11 21:00:00 15.4 0 Calma 4 Nordeste 0 -- -- 88
2020-11-11 20:00:00 15.5 2 Sur 9 Sudeste 0 -- -- 87
2020-11-11 19:00:00 16 6 Sudeste 17 Sudeste 0 -- -- 84
2020-11-11 18:00:00 16.7 10 Sur 26 Sudeste 0 -- -- 79
2020-11-11 17:00:00 18.1 19 Sudeste 28 Sudeste 0 -- -- 70
2020-11-11 16:00:00 19.2 21 Sur 30 Sur 0 -- -- 69
2020-11-11 15:00:00 19.2 19 Sudeste 32 Sudeste 0 -- -- 65
2020-11-11 14:00:00 19 19 Sudeste 35 Sudeste 0 -- -- 66
2020-11-11 13:00:00 18.6 20 Sudeste 31 Este 0 -- -- 67
2020-11-11 12:00:00 18 15 Sudeste 28 Sudeste 0 -- -- 77
2020-11-11 11:00:00 17 15 Sur 23 Sur 0 -- -- 83
2020-11-11 10:00:00 15.5 13 Sudeste 20 Sur 0 -- -- 91
2020-11-11 09:00:00 14.7 9 Sudeste 13 Sudeste 0 -- -- 91
2020-11-11 08:00:00 14.6 7 Sudeste 10 Sudeste 0 -- -- 91
2020-11-11 07:00:00 14.4 3 Este 9 Este 0 -- -- 90
2020-11-11 06:00:00 14.5 3 Este 10 Sudeste 0 -- -- 90
2020-11-11 05:00:00 14.5 4 Este 8 Sur 0 -- -- 90
2020-11-11 04:00:00 14 4 Sudeste 9 Sur 0 -- -- 91
2020-11-11 03:00:00 13.8 7 Sudeste 10 Sudeste 0 -- -- 89
2020-11-11 02:00:00 13.9 6 Sudeste 9 Sudeste 0 -- -- 87
2020-11-11 01:00:00 13.6 0 Calma 5 Nordeste 0 -- -- 87
2020-11-11 00:00:00 13.8 4 Este 6 Este 0 -- -- 85
2020-11-10 23:00:00 14.2 0 Calma 8 Este 0 -- -- 83
2020-11-10 22:00:00 14.9 4 Este 9 Este 0 -- -- 81
2020-11-10 21:00:00 15.5 0 Calma 8 Norte 0 -- -- 79
2020-11-10 20:00:00 16.2 2 Norte 8 Sur 0 -- -- 76
2020-11-10 19:00:00 17 4 Sur 17 Sur 0 -- -- 73
2020-11-10 18:00:00 18.8 13 Sur 20 Sur 0 -- -- 67
2020-11-10 17:00:00 21.4 14 Sur 24 Sur 0 -- -- 53
2020-11-10 16:00:00 22.1 17 Sudeste 24 Sur 0 -- -- 52
2020-11-10 15:00:00 22.4 14 Sudeste 25 Sudeste 0 -- -- 50
2020-11-10 14:00:00 22.9 16 Sur 26 Sur 0 -- -- 50
2020-11-10 13:00:00 21.3 5 Sur 13 Sudeste 0 -- -- 57
2020-11-10 12:00:00 20.3 4 Sudoeste 9 Norte 0 -- -- 60
2020-11-10 11:00:00 18.2 5 Noroeste 13 Noroeste 0 -- -- 69
2020-11-10 10:00:00 15.5 6 Noroeste 18 Norte 0 -- -- 80
2020-11-10 09:00:00 12.9 8 Norte 18 Noroeste 0 -- -- 87
2020-11-10 08:00:00 12.2 9 Noroeste 20 Noroeste 0 -- -- 87
2020-11-10 07:00:00 13.2 10 Noroeste 22 Noroeste 0 -- -- 84
2020-11-10 06:00:00 13.4 11 Noroeste 24 Noroeste 0 -- -- 84
2020-11-10 05:00:00 13.4 10 Noroeste 19 Noroeste 0 -- -- 85
2020-11-10 04:00:00 13.6 9 Noroeste 22 Noroeste 0 -- -- 84
2020-11-10 03:00:00 13.8 9 Noroeste 20 Noroeste 0 -- -- 83
2020-11-10 02:00:00 13.7 8 Noroeste 17 Noroeste 0 -- -- 84
2020-11-10 01:00:00 14.1 8 Noroeste 18 Noroeste 0 -- -- 82
2020-11-10 00:00:00 14.5 11 Noroeste 20 Norte 0 -- -- 80
2020-11-09 23:00:00 14.6 13 Norte 20 Noroeste 0 -- -- 79
2020-11-09 22:00:00 15.2 8 Noroeste 13 Norte 0 -- -- 76
2020-11-09 21:00:00 16.1 9 Noroeste 15 Norte 0 -- -- 74
2020-11-09 20:00:00 17.1 8 Norte 13 Noroeste 0 -- -- 72
2020-11-09 19:00:00 18 9 Noroeste 13 Norte 0 -- -- 70
2020-11-09 18:00:00 19.3 9 Noroeste 14 Noroeste 0 -- -- 65
2020-11-09 17:00:00 21 8 Oeste 17 Oeste 0 -- -- 59
2020-11-09 16:00:00 22.6 3 Noroeste 17 Oeste 0 -- -- 58
2020-11-09 15:00:00 22.5 11 Oeste 19 Oeste 0 -- -- 60
2020-11-09 14:00:00 21.8 5 Noroeste 14 Norte 0 -- -- 62
2020-11-09 13:00:00 20.3 3 Norte 13 Oeste 0 -- -- 64
2020-11-09 12:00:00 18.1 3 Noroeste 17 Norte 0 -- -- 70
2020-11-09 11:00:00 16.7 4 Noroeste 12 Oeste 0 -- -- 80
2020-11-09 10:00:00 14.4 3 Sur 8 Noroeste 0 -- -- 88
2020-11-09 09:00:00 11.8 4 Noroeste 8 Nordeste 0 -- -- 90
2020-11-09 08:00:00 11 0 Calma 5 Norte 0 -- -- 90
2020-11-09 07:00:00 11.2 0 Calma 2 Norte 0 -- -- 90
2020-11-09 06:00:00 11.4 0 Calma 3 Oeste 0 -- -- 90
2020-11-09 05:00:00 11.7 0 Calma 2 Este 0 -- -- 88
2020-11-09 04:00:00 12.1 2 Norte 4 Norte 0 -- -- 87
2020-11-09 03:00:00 12.5 0 Calma 5 Noroeste 0 -- -- 85
2020-11-09 02:00:00 12.6 0 Calma 5 Oeste 0 -- -- 86
2020-11-09 01:00:00 12.7 0 Calma 4 Nordeste 0 -- -- 86
2020-11-09 00:00:00 13.3 0 Calma 5 Noroeste 0 -- -- 84
2020-11-08 23:00:00 13.7 0 Calma 4 Sudeste 0 -- -- 82
2020-11-08 22:00:00 14.4 0 Calma 4 Este 0 -- -- 79
2020-11-08 21:00:00 15.5 0 Calma 3 Sudeste 0 -- -- 75
2020-11-08 20:00:00 17 0 Calma 5 Este 0 -- -- 68
2020-11-08 19:00:00 18.5 5 Este 13 Este 0 -- -- 62
2020-11-08 18:00:00 19.5 9 Este 15 Este 0 -- -- 60
2020-11-08 17:00:00 20.9 13 Sudeste 23 Sudeste 0 -- -- 55
2020-11-08 16:00:00 20.8 14 Sudeste 21 Sudeste 0 -- -- 55
2020-11-08 15:00:00 21.9 13 Sudeste 22 Sur 0 -- -- 51
2020-11-08 14:00:00 22.7 13 Sur 21 Sur 0 -- -- 56
2020-11-08 13:00:00 21.8 10 Sur 17 Sur 0 -- -- 60
2020-11-08 12:00:00 18.5 2 Sudeste 6 Sudeste 0 -- -- 77
2020-11-08 11:00:00 17.2 0 Calma 5 Oeste 0 -- -- 77
2020-11-08 10:00:00 15 2 Sudeste 5 Sur 0 -- -- 89
2020-11-08 09:00:00 11.8 0 Calma 3 Noroeste 0 -- -- 93
2020-11-08 08:00:00 11.2 0 Calma 5 Norte 0 -- -- 92
2020-11-08 07:00:00 11.3 0 Calma 6 Norte 0 -- -- 91
2020-11-08 06:00:00 11.4 3 Noroeste 7 Noroeste 0 -- -- 91
2020-11-08 05:00:00 11.9 0 Calma 5 Norte 0 -- -- 90
2020-11-08 04:00:00 12.2 0 Calma 5 Norte 0 -- -- 90
2020-11-08 03:00:00 12.6 0 Calma 5 Noroeste 0 -- -- 88
2020-11-08 02:00:00 13.1 2 Noroeste 7 Sudoeste 0 -- -- 88
2020-11-08 01:00:00 13.5 3 Norte 8 Oeste 0 -- -- 87
2020-11-08 00:00:00 14.1 2 Norte 4 Nordeste 0 -- -- 87
2020-11-07 23:00:00 14.6 0 Calma 4 Norte 0 -- -- 85
2020-11-07 22:00:00 15.4 0 Calma 6 Noroeste 0 -- -- 82
2020-11-07 21:00:00 16.3 4 Noroeste 9 Nordeste 0 -- -- 79
2020-11-07 20:00:00 17.5 3 Nordeste 9 Este 0 -- -- 74
2020-11-07 19:00:00 18.7 5 Este 10 Sur 0 -- -- 70
2020-11-07 18:00:00 20.4 8 Sur 15 Sur 0 -- -- 63
2020-11-07 17:00:00 22.1 8 Sur 22 Sur 0 -- -- 57
2020-11-07 16:00:00 21.8 18 Sur 26 Sur 0 -- -- 59
2020-11-07 15:00:00 22.8 9 Sudeste 17 Sudeste 0 -- -- 47
2020-11-07 14:00:00 21.6 7 Sur 15 Sur 0 -- -- 54
2020-11-07 13:00:00 20.7 9 Sudeste 20 Sudeste 0 -- -- 56
2020-11-07 12:00:00 21.8 12 Sur 18 Sur 0 -- -- 57
2020-11-07 11:00:00 19.9 7 Sudeste 17 Este 0 -- -- 68
2020-11-07 10:00:00 17.9 7 Este 13 Este 0 -- -- 81
2020-11-07 09:00:00 15.9 5 Sur 10 Noroeste 0 -- -- 91
2020-11-07 08:00:00 15 7 Norte 15 Sudeste 0 -- -- 91
2020-11-07 07:00:00 15.4 10 Sudeste 18 Sur 0 -- -- 92
2020-11-07 06:00:00 15.1 13 Este 20 Este 3.8 -- -- 93
2020-11-07 05:00:00 14.9 7 Sudoeste 15 Sudoeste 0.2 -- -- 92
2020-11-07 04:00:00 15.1 8 Nordeste 13 Nordeste 3.6 -- -- 90
2020-11-07 03:00:00 15.6 3 Sur 19 Oeste 0.6 -- -- 86
2020-11-07 02:00:00 16 0 Calma 6 Oeste 0 -- -- 82
2020-11-07 01:00:00 16.3 6 Sur 16 Nordeste 0 -- -- 80
2020-11-07 00:00:00 16.6 8 Este 23 Este 0.2 -- -- 78
2020-11-06 23:00:00 16.8 12 Sudeste 39 Sudoeste 0.6 -- -- 78
2020-11-06 22:00:00 17.7 4 Sur 13 Norte 0.2 -- -- 74
2020-11-06 21:00:00 18.8 3 Sudoeste 15 Oeste 0.4 -- -- 68
2020-11-06 20:00:00 20.6 5 Oeste 18 Norte 0 -- -- 56
2020-11-06 19:00:00 21.5 4 Sudeste 17 Sudeste 0 -- -- 52
2020-11-06 18:00:00 22.1 9 Sudeste 30 Sur 0 -- -- 52
2020-11-06 17:00:00 23.7 14 Sur 31 Sudoeste 0 -- -- 44
2020-11-06 16:00:00 25.6 19 Sur 36 Sudoeste 0 -- -- 40
2020-11-06 15:00:00 26.4 24 Sur 40 Sur 0 -- -- 39
2020-11-06 14:00:00 26.6 17 Sur 41 Sur 0 -- -- 38
2020-11-06 13:00:00 26.3 16 Sur 44 Sudoeste 0 -- -- 42
2020-11-06 12:00:00 25.2 19 Sur 34 Sur 0 -- -- 45
2020-11-06 11:00:00 23.5 12 Sur 23 Sur 0 -- -- 49
2020-11-06 10:00:00 20.4 8 Sudeste 15 Sur 0 -- -- 62
2020-11-06 09:00:00 18.2 8 Sudeste 16 Sudeste 0 -- -- 65
2020-11-06 08:00:00 17.2 5 Sudeste 11 Este 0 -- -- 64
2020-11-06 07:00:00 15.6 3 Nordeste 10 Nordeste 0 -- -- 71
2020-11-06 06:00:00 14.5 2 Sudeste 6 Noroeste 0 -- -- 80
2020-11-06 05:00:00 14.6 0 Calma 5 Este 0 -- -- 79
2020-11-06 04:00:00 14.4 2 Noroeste 6 Noroeste 0 -- -- 81
2020-11-06 03:00:00 14.7 3 Norte 10 Norte 0 -- -- 80
2020-11-06 02:00:00 15.2 5 Oeste 10 Oeste 0 -- -- 79
2020-11-06 01:00:00 14.8 3 Oeste 13 Nordeste 0 -- -- 83
2020-11-06 00:00:00 15 4 Noroeste 13 Oeste 0 -- -- 81
2020-11-05 23:00:00 15.8 7 Nordeste 14 Nordeste 0 -- -- 78
2020-11-05 22:00:00 16.4 0 Calma 12 Nordeste 0 -- -- 77
2020-11-05 21:00:00 16.9 5 Norte 11 Nordeste 0 -- -- 76
2020-11-05 20:00:00 17.4 4 Este 10 Sudeste 0 -- -- 75
2020-11-05 19:00:00 18.1 9 Sudeste 24 Sur 0 -- -- 72
2020-11-05 18:00:00 19.3 11 Sur 25 Sudoeste 0 -- -- 64
2020-11-05 17:00:00 20.4 14 Sudeste 40 Este 0 -- -- 62
2020-11-05 16:00:00 20.1 22 Sudeste 42 Sudeste 0 -- -- 65
2020-11-05 15:00:00 20.3 25 Sudeste 55 Sudeste 0 -- -- 71
2020-11-05 14:00:00 20.1 39 Sudeste 58 Este 0 -- -- 69
2020-11-05 13:00:00 18.5 30 Sudeste 42 Sudeste 0 -- -- 80
2020-11-05 12:00:00 18 18 Sudeste 49 Sudeste 0 -- -- 83
2020-11-05 11:00:00 18.4 29 Este 53 Este 0 -- -- 81
2020-11-05 10:00:00 17.8 28 Sudeste 49 Este 0 -- -- 80
2020-11-05 09:00:00 17.6 31 Sudeste 51 Este 0 -- -- 86
2020-11-05 08:00:00 17.4 30 Este 52 Sudeste 0.4 -- -- 86
2020-11-05 07:00:00 16.7 25 Sudeste 64 Este 1.2 -- -- 86
2020-11-05 06:00:00 16.3 36 Este 74 Este 2 -- -- 88
2020-11-05 05:00:00 15.8 23 Sudeste 73 Este 1.2 -- -- 89
2020-11-05 04:00:00 15.9 41 Este 76 Este 2.2 -- -- 86
2020-11-05 03:00:00 15.8 33 Este 72 Sudeste 5.4 -- -- 87
2020-11-05 02:00:00 15.9 32 Sudeste 66 Sudeste 6 -- -- 90
2020-11-05 01:00:00 16.5 40 Sudeste 70 Este 5 -- -- 86
2020-11-05 00:00:00 17 34 Este 64 Este 0.2 -- -- 86
2020-11-04 23:00:00 17.4 31 Este 58 Este 0.2 -- -- 81
2020-11-04 22:00:00 16.6 19 Sudeste 35 Este 0 -- -- 82
2020-11-04 21:00:00 15.5 10 Sudeste 14 Sur 0 -- -- 89
2020-11-04 20:00:00 15.4 5 Sudeste 9 Sudeste 0 -- -- 88
2020-11-04 19:00:00 15.9 2 Sur 16 Sur 0.4 -- -- 85
2020-11-04 18:00:00 16.9 6 Sudeste 14 Sudeste 0 -- -- 77
2020-11-04 17:00:00 17.2 6 Sur 26 Sur 0 -- -- 77
2020-11-04 16:00:00 17.6 15 Sur 24 Sur 0 -- -- 73
2020-11-04 15:00:00 18 14 Sudeste 23 Sudeste 0 -- -- 70
2020-11-04 14:00:00 17.8 10 Sudeste 16 Sur 0 -- -- 78
2020-11-04 13:00:00 17.3 13 Sur 17 Sur 0 -- -- 81
2020-11-04 12:00:00 16.4 8 Sudeste 12 Sudeste 0 -- -- 93
2020-11-04 11:00:00 15.8 2 Sudoeste 5 Sudoeste 0.2 -- -- 94
2020-11-04 10:00:00 15 0 Calma 2 Sudoeste 0 -- -- 94
2020-11-04 09:00:00 14.6 0 Calma 6 Este 0 -- -- 94
2020-11-04 08:00:00 14.4 0 Calma 8 Oeste 0 -- -- 93
2020-11-04 07:00:00 14.7 3 Nordeste 19 Este 3.4 -- -- 92
2020-11-04 06:00:00 14.9 3 Este 8 Sudeste 0.2 -- -- 89
2020-11-04 05:00:00 14.8 6 Sudeste 9 Sudeste 0 -- -- 90
2020-11-04 04:00:00 14.7 0 Calma 9 Sur 0 -- -- 90
2020-11-04 03:00:00 14.8 5 Sudeste 8 Sur 0 -- -- 90
2020-11-04 02:00:00 14.7 4 Sudeste 9 Este 0 -- -- 89
2020-11-04 01:00:00 14.5 3 Sudeste 10 Sudeste 0 -- -- 88
2020-11-04 00:00:00 14.4 3 Sudeste 8 Sudeste 0 -- -- 87
2020-11-03 23:00:00 14.9 0 Calma 8 Sur 0 -- -- 88
2020-11-03 22:00:00 15 3 Sudeste 10 Sudeste 0 -- -- 87
2020-11-03 21:00:00 15.6 5 Sudeste 13 Sudeste 0 -- -- 84
2020-11-03 20:00:00 16.8 8 Sudeste 11 Sudeste 0 -- -- 79
2020-11-03 19:00:00 18.8 3 Sur 15 Sur 0 -- -- 65
2020-11-03 18:00:00 20.2 11 Sur 17 Sur 0 -- -- 60
2020-11-03 17:00:00 21.2 13 Sur 20 Sur 0 -- -- 58
2020-11-03 16:00:00 22.5 14 Sur 27 Sur 0 -- -- 50
2020-11-03 15:00:00 24 17 Sur 24 Sur 0 -- -- 47
2020-11-03 14:00:00 23.7 16 Sur 22 Sur 0 -- -- 49
2020-11-03 13:00:00 23.1 16 Sur 23 Sudeste 0 -- -- 51
2020-11-03 12:00:00 21.2 14 Sudeste 21 Sudeste 0 -- -- 53
2020-11-03 11:00:00 18.7 8 Sudeste 13 Sudeste 0 -- -- 58
2020-11-03 10:00:00 17.2 3 Sudeste 6 Sudeste 0 -- -- 62
2020-11-03 09:00:00 13.2 2 Norte 6 Oeste 0 -- -- 69
2020-11-03 08:00:00 11.5 0 Calma 6 Nordeste 0 -- -- 69
2020-11-03 07:00:00 11.4 0 Calma 0 Calma 0 -- -- 69
2020-11-03 06:00:00 11.9 0 Calma 3 Oeste 0 -- -- 67
2020-11-03 05:00:00 11.9 0 Calma 4 Noroeste 0 -- -- 67
2020-11-03 04:00:00 12.1 0 Calma 3 Este 0 -- -- 68
2020-11-03 03:00:00 12.8 0 Calma 3 Oeste 0 -- -- 67
2020-11-03 02:00:00 12.9 0 Calma 6 Nordeste 0 -- -- 66
2020-11-03 01:00:00 13.5 5 Noroeste 8 Noroeste 0 -- -- 71
2020-11-03 00:00:00 13.6 0 Calma 2 Sudeste 0 -- -- 80
2020-11-02 23:00:00 14.5 0 Calma 4 Noroeste 0 -- -- 85
2020-11-02 22:00:00 14.8 2 Noroeste 4 Norte 0 -- -- 88
2020-11-02 21:00:00 15.3 2 Sudeste 12 Sudeste 0 -- -- 87
2020-11-02 20:00:00 16.6 10 Sudeste 16 Sudeste 0 -- -- 80
2020-11-02 19:00:00 19.9 8 Sudeste 13 Sudoeste 0 -- -- 60
2020-11-02 18:00:00 24.6 10 Sudoeste 20 Sur 0 -- -- 42
2020-11-02 17:00:00 26.3 15 Sur 20 Sur 0 -- -- 32
2020-11-02 16:00:00 27.8 13 Sur 23 Sur 0 -- -- 27
2020-11-02 15:00:00 27.9 16 Sur 22 Sur 0 -- -- 31
2020-11-02 14:00:00 27.2 14 Sur 21 Sur 0 -- -- 34
2020-11-02 13:00:00 26.1 13 Sur 23 Sur 0 -- -- 38
2020-11-02 12:00:00 24.4 15 Sur 20 Sur 0 -- -- 43
2020-11-02 11:00:00 21.3 4 Sudeste 7 Sudeste 0 -- -- 49
2020-11-02 10:00:00 16.8 3 Sur 6 Sudeste 0 -- -- 67
2020-11-02 09:00:00 12.9 0 Calma 3 Nordeste 0 -- -- 75
2020-11-02 08:00:00 11.9 0 Calma 2 Noroeste 0 -- -- 72
2020-11-02 07:00:00 12.3 2 Noroeste 5 Noroeste 0 -- -- 71
2020-11-02 06:00:00 12.9 0 Calma 5 Norte 0 -- -- 69
2020-11-02 05:00:00 13.2 3 Oeste 5 Nordeste 0 -- -- 69
2020-11-02 04:00:00 13 0 Calma 8 Norte 0 -- -- 71
2020-11-02 03:00:00 13.3 3 Norte 6 Norte 0 -- -- 71
2020-11-02 02:00:00 13.8 0 Calma 3 Oeste 0 -- -- 72
2020-11-02 01:00:00 14.1 0 Calma 4 Noroeste 0 -- -- 72
2020-11-02 00:00:00 14.7 0 Calma 5 Norte 0 -- -- 71
2020-11-01 23:00:00 15.2 2 Noroeste 4 Noroeste 0 -- -- 76
2020-11-01 22:00:00 16.1 0 Calma 6 Sudeste 0 -- -- 74
2020-11-01 21:00:00 17.2 4 Sudeste 9 Sudeste 0 -- -- 71
2020-11-01 20:00:00 18.3 5 Sudeste 13 Sudeste 0 -- -- 71
2020-11-01 19:00:00 20.6 6 Sudeste 12 Sudeste 0 -- -- 61
2020-11-01 18:00:00 24.8 3 Sur 15 Sur 0 -- -- 46
2020-11-01 17:00:00 26.7 12 Sur 20 Sur 0 -- -- 41
2020-11-01 16:00:00 27.8 15 Sur 22 Sur 0 -- -- 37
2020-11-01 15:00:00 28 14 Sur 22 Sur 0 -- -- 38
2020-11-01 14:00:00 27.2 12 Sur 19 Sur 0 -- -- 39
2020-11-01 13:00:00 25.6 13 Sudeste 18 Sur 0 -- -- 43
2020-11-01 12:00:00 23.5 12 Sudeste 15 Sudeste 0 -- -- 49
2020-11-01 11:00:00 22.2 5 Sur 8 Sur 0 -- -- 49
2020-11-01 10:00:00 18.6 3 Sudeste 5 Sudeste 0 -- -- 63
2020-11-01 09:00:00 14.9 0 Calma 6 Nordeste 0 -- -- 72
2020-11-01 08:00:00 13.8 3 Nordeste 6 Nordeste 0 -- -- 73
2020-11-01 07:00:00 13.5 3 Nordeste 6 Norte 0 -- -- 74
2020-11-01 06:00:00 13.3 4 Nordeste 7 Nordeste 0 -- -- 76
2020-11-01 05:00:00 13.1 0 Calma 4 Norte 0 -- -- 76
2020-11-01 04:00:00 13.4 0 Calma 5 Oeste 0 -- -- 74
2020-11-01 03:00:00 13.7 4 Oeste 5 Este 0 -- -- 73
2020-11-01 02:00:00 14 2 Sudeste 5 Noroeste 0 -- -- 71
2020-11-01 01:00:00 14.3 3 Oeste 7 Norte 0 -- -- 70
2020-11-01 00:00:00 14.7 3 Noroeste 7 Norte 0 -- -- 68
2020-10-31 23:00:00 15.6 0 Calma 3 Sudoeste 0 -- -- 68
2020-10-31 22:00:00 16.4 0 Calma 4 Sudeste 0 -- -- 65
2020-10-31 21:00:00 18 2 Sur 8 Sudeste 0 -- -- 60
2020-10-31 20:00:00 19 2 Sur 12 Sur 0 -- -- 57
2020-10-31 19:00:00 20.5 6 Sudeste 19 Sur 0 -- -- 52
2020-10-31 18:00:00 23.3 13 Sur 18 Sur 0 -- -- 46
2020-10-31 17:00:00 26 10 Sur 18 Sur 0 -- -- 37
2020-10-31 16:00:00 27.1 14 Sur 19 Sur 0 -- -- 33
2020-10-31 15:00:00 27.2 13 Sur 22 Sur 0 -- -- 33
2020-10-31 14:00:00 27.2 11 Sur 22 Sur 0 -- -- 32
2020-10-31 13:00:00 26.3 14 Sur 21 Sur 0 -- -- 35
2020-10-31 12:00:00 25.1 13 Sur 21 Sur 0 -- -- 38
2020-10-31 11:00:00 22.4 4 Sudeste 10 Sudeste 0 -- -- 49
2020-10-31 10:00:00 18 6 Oeste 8 Oeste 0 -- -- 65
2020-10-31 09:00:00 13.5 2 Noroeste 6 Nordeste 0 -- -- 78
2020-10-31 08:00:00 12.7 3 Norte 5 Oeste 0 -- -- 77
2020-10-31 07:00:00 12.6 4 Noroeste 5 Oeste 0 -- -- 77
2020-10-31 06:00:00 13 0 Calma 3 Nordeste 0 -- -- 75
2020-10-31 05:00:00 13.5 3 Oeste 4 Norte 0 -- -- 75
2020-10-31 04:00:00 13.3 2 Oeste 5 Noroeste 0 -- -- 74
2020-10-31 03:00:00 13.8 0 Calma 3 Sudoeste 0 -- -- 73
2020-10-31 02:00:00 14.3 0 Calma 3 Oeste 0 -- -- 71
2020-10-31 01:00:00 14.4 0 Calma 6 Noroeste 0 -- -- 71
2020-10-31 00:00:00 14.8 0 Calma 6 Oeste 0 -- -- 68
2020-10-30 23:00:00 15.4 0 Calma 11 Este 0 -- -- 66
2020-10-30 22:00:00 16.3 5 Nordeste 9 Este 0 -- -- 64
2020-10-30 21:00:00 17.2 6 Este 9 Este 0 -- -- 62
2020-10-30 20:00:00 18 0 Calma 9 Sur 0 -- -- 59
2020-10-30 19:00:00 18.5 6 Sudeste 14 Sudeste 0 -- -- 57
2020-10-30 18:00:00 20.1 10 Sudeste 21 Sudeste 0 -- -- 51
2020-10-30 17:00:00 22 19 Sur 30 Sur 0 -- -- 45
2020-10-30 16:00:00 23.7 19 Sur 33 Sur 0 -- -- 42
2020-10-30 15:00:00 24.6 23 Sur 33 Sudeste 0 -- -- 40
2020-10-30 14:00:00 24.4 22 Sur 35 Sur 0 -- -- 41
2020-10-30 13:00:00 24.4 20 Sur 33 Sur 0 -- -- 42
2020-10-30 12:00:00 23.3 18 Sur 27 Sur 0 -- -- 46
2020-10-30 11:00:00 20.8 12 Sudeste 17 Sur 0 -- -- 52
2020-10-30 10:00:00 16.3 2 Sudeste 4 Sudeste 0 -- -- 70
2020-10-30 09:00:00 12.8 0 Calma 3 Sudoeste 0 -- -- 79
2020-10-30 08:00:00 12.2 0 Calma 3 Noroeste 0 -- -- 76
2020-10-30 07:00:00 11.9 0 Calma 4 Noroeste 0 -- -- 78
2020-10-30 06:00:00 11.8 0 Calma 7 Oeste 0 -- -- 79
2020-10-30 05:00:00 12.3 3 Nordeste 7 Nordeste 0 -- -- 76
2020-10-30 04:00:00 12.6 0 Calma 6 Este 0 -- -- 75
2020-10-30 03:00:00 12.8 5 Nordeste 10 Nordeste 0 -- -- 73
2020-10-30 02:00:00 13 3 Sudeste 6 Este 0 -- -- 71
2020-10-30 01:00:00 13.7 4 Este 12 Este 0 -- -- 70
2020-10-30 00:00:00 14.3 0 Calma 10 Este 0 -- -- 68